Time;durP1;ratioP1;P1;durP2;ratioP2;P2;SDS_P1;SDS_P2;PMS_P1;PMS_P2;Temp;Humidity;BMP_temperature;BMP_pressure;BME280_temperature;BME280_humidity;BME280_pressure;Samples;Min_cycle;Max_cycle;Signal;HPM_P1;HPM_P2
2024/01/30 00:00:01;;;;;;;3.77;2.50;;;;;;;-1.21;61.39;95252.03;523934;28;776;-64
2024/01/30 00:00:17;;;;;;;3.15;2.60;;;;;;;-1.18;61.82;95253.88;524070;28;1020;-64
2024/01/30 00:00:32;;;;;;;2.50;2.30;;;;;;;-1.15;61.68;95253.75;523822;28;784;-64
2024/01/30 00:00:48;;;;;;;2.83;2.37;;;;;;;-1.14;61.65;95257.25;523825;28;780;-64
2024/01/30 00:01:03;;;;;;;3.00;2.60;;;;;;;-1.12;61.56;95254.84;523850;28;836;-64
2024/01/30 00:01:19;;;;;;;2.70;2.50;;;;;;;-1.10;61.23;95260.59;523691;28;761;-64
2024/01/30 00:01:34;;;;;;;2.78;2.47;;;;;;;-1.06;61.31;95264.00;523841;28;832;-63
2024/01/30 00:01:50;;;;;;;2.90;2.60;;;;;;;-1.06;61.20;95255.88;523882;28;753;-64
2024/01/30 00:02:05;;;;;;;3.20;2.50;;;;;;;-1.03;61.29;95257.72;521542;28;1906;-64
2024/01/30 00:02:21;;;;;;;2.83;2.17;;;;;;;-1.00;61.15;95257.63;522118;28;773;-64
2024/01/30 00:02:36;;;;;;;2.65;2.40;;;;;;;-0.96;61.16;95257.50;523862;28;781;-64
2024/01/30 00:02:52;;;;;;;3.20;2.70;;;;;;;-0.96;60.82;95261.00;523735;28;752;-64
2024/01/30 00:03:07;;;;;;;2.90;2.60;;;;;;;-1.02;61.31;95262.69;523821;28;773;-63
2024/01/30 00:03:22;;;;;;;2.63;2.30;;;;;;;-1.03;60.83;95257.72;523870;28;781;-64
2024/01/30 00:03:38;;;;;;;3.50;2.33;;;;;;;-1.03;61.15;95260.41;523776;28;879;-64
2024/01/30 00:03:53;;;;;;;3.43;2.40;;;;;;;-1.06;61.03;95256.59;523737;28;1184;-64
2024/01/30 00:04:09;;;;;;;3.45;2.30;;;;;;;-1.08;60.78;95252.81;523978;28;1076;-64
2024/01/30 00:04:24;;;;;;;3.17;2.40;;;;;;;-1.09;60.62;95254.00;524182;28;847;-64
2024/01/30 00:04:40;;;;;;;2.57;2.33;;;;;;;-1.14;60.68;95254.53;524296;28;1246;-63
2024/01/30 00:04:55;;;;;;;2.73;2.40;;;;;;;-1.15;60.61;95261.16;526240;28;764;-63
2024/01/30 00:05:11;;;;;;;2.87;2.50;;;;;;;-1.15;60.74;95258.44;526092;28;1099;-63
2024/01/30 00:05:26;;;;;;;2.60;2.40;;;;;;;-1.16;61.00;95254.97;526130;28;976;-63
2024/01/30 00:05:41;;;;;;;2.37;2.17;;;;;;;-1.16;61.13;95254.19;526085;28;1304;-63
2024/01/30 00:05:57;;;;;;;2.45;2.25;;;;;;;-1.14;60.95;95255.28;526194;28;864;-63
2024/01/30 00:06:12;;;;;;;2.60;2.40;;;;;;;-1.13;61.07;95256.84;526235;28;843;-63
2024/01/30 00:06:28;;;;;;;2.63;2.35;;;;;;;-1.11;61.12;95262.59;526179;28;792;-63
2024/01/30 00:06:44;;;;;;;2.50;2.20;;;;;;;-1.13;60.51;95266.91;526205;28;747;-63
2024/01/30 00:06:59;;;;;;;2.20;2.00;;;;;;;-1.13;60.57;95256.06;526171;28;882;-63
2024/01/30 00:07:15;;;;;;;2.45;2.13;;;;;;;-1.19;61.16;95253.09;526282;28;808;-63
2024/01/30 00:07:30;;;;;;;2.60;2.30;;;;;;;-1.26;61.51;95266.88;526266;28;1057;-63
2024/01/30 00:07:46;;;;;;;2.33;2.13;;;;;;;-1.28;61.31;95263.06;526184;28;745;-63
2024/01/30 00:08:01;;;;;;;2.80;2.37;;;;;;;-1.32;61.13;95265.09;525960;28;1064;-63
2024/01/30 00:08:17;;;;;;;3.25;2.50;;;;;;;-1.33;61.15;95269.75;526030;28;752;-63
2024/01/30 00:08:32;;;;;;;3.13;2.43;;;;;;;-1.38;60.91;95269.50;526206;28;763;-63
2024/01/30 00:08:48;;;;;;;2.90;2.45;;;;;;;-1.50;61.10;95257.44;526236;28;800;-63
2024/01/30 00:09:05;;;;;;;3.10;2.40;;;;;;;-1.59;61.13;95252.66;526279;28;824;-63
2024/01/30 00:09:20;;;;;;;3.35;2.60;;;;;;;-1.61;61.31;95270.50;526268;28;832;-63
2024/01/30 00:09:35;;;;;;;3.50;2.60;;;;;;;-1.58;61.28;95266.94;526121;28;820;-63
2024/01/30 00:09:51;;;;;;;3.60;2.50;;;;;;;-1.55;61.66;95263.38;526218;28;827;-63
2024/01/30 00:10:07;;;;;;;3.83;2.63;;;;;;;-1.54;61.60;95260.22;526234;28;827;-63
2024/01/30 00:10:22;;;;;;;3.40;2.63;;;;;;;-1.50;61.43;95262.09;526167;28;800;-63
2024/01/30 00:10:38;;;;;;;3.08;2.60;;;;;;;-1.46;61.74;95262.75;526277;28;760;-63
2024/01/30 00:10:53;;;;;;;2.90;2.33;;;;;;;-1.47;61.76;95262.00;526213;28;776;-63
2024/01/30 00:11:08;;;;;;;2.60;2.10;;;;;;;-1.42;61.93;95258.78;526168;28;721;-63
2024/01/30 00:11:25;;;;;;;2.30;2.00;;;;;;;-1.39;61.96;95265.28;526264;28;900;-63
2024/01/30 00:11:41;;;;;;;3.00;2.20;;;;;;;-1.33;61.67;95258.94;526341;28;792;-63
2024/01/30 00:11:56;;;;;;;3.27;2.60;;;;;;;-1.30;61.59;95258.06;526186;28;906;-63
2024/01/30 00:12:12;;;;;;;2.90;2.60;;;;;;;-1.28;61.62;95260.34;526204;28;831;-63
2024/01/30 00:12:27;;;;;;;2.87;2.50;;;;;;;-1.24;61.24;95263.72;526200;28;847;-63
2024/01/30 00:12:43;;;;;;;3.20;2.60;;;;;;;-1.22;61.42;95261.34;526329;28;865;-63
2024/01/30 00:12:58;;;;;;;3.23;2.67;;;;;;;-1.20;61.18;95256.25;526154;28;835;-63
2024/01/30 00:13:16;;;;;;;2.75;2.47;;;;;;;-1.18;61.07;95260.06;526305;28;851;-63
2024/01/30 00:13:31;;;;;;;2.60;2.30;;;;;;;-1.17;61.07;95255.41;526013;28;882;-63
2024/01/30 00:13:47;;;;;;;3.67;2.30;;;;;;;-1.13;60.88;95258.78;525985;28;965;-63
2024/01/30 00:14:03;;;;;;;3.70;2.43;;;;;;;-1.14;60.79;95255.28;526043;28;847;-63
2024/01/30 00:14:19;;;;;;;2.70;2.35;;;;;;;-1.16;60.93;95256.91;526011;28;858;-63
2024/01/30 00:14:34;;;;;;;3.03;2.30;;;;;;;-1.16;60.61;95262.34;526025;28;907;-63
2024/01/30 00:14:50;;;;;;;3.33;2.77;;;;;;;-1.14;60.40;95251.81;526070;28;728;-63
2024/01/30 00:15:08;;;;;;;2.67;2.47;;;;;;;-1.20;60.80;95256.25;525966;28;788;-63
2024/01/30 00:15:23;;;;;;;4.20;2.13;;;;;;;-1.18;60.86;95253.88;526006;28;926;-63
2024/01/30 00:15:39;;;;;;;4.40;2.10;;;;;;;-1.17;60.97;95253.44;526038;28;760;-63
2024/01/30 00:15:54;;;;;;;2.42;2.17;;;;;;;-1.16;60.77;95257.69;526093;28;802;-63
2024/01/30 00:16:26;;;;;;;2.70;2.40;;;;;;;-1.14;60.69;95255.28;526113;28;859;-63
2024/01/30 00:16:42;;;;;;;2.88;2.30;;;;;;;-1.13;60.82;95256.84;526273;28;901;-63
2024/01/30 00:16:57;;;;;;;3.57;2.57;;;;;;;-1.10;60.67;95261.38;526167;28;876;-63
2024/01/30 00:17:12;;;;;;;3.13;2.50;;;;;;;-1.09;60.72;95260.19;526176;28;768;-63
2024/01/30 00:17:28;;;;;;;2.93;2.50;;;;;;;-1.14;60.80;95249.09;526257;28;840;-63
2024/01/30 00:17:43;;;;;;;3.05;2.70;;;;;;;-1.08;60.69;95252.81;526230;28;792;-63
2024/01/30 00:17:59;;;;;;;3.47;2.60;;;;;;;-1.07;60.41;95257.06;526048;28;914;-63
2024/01/30 00:18:14;;;;;;;3.90;2.85;;;;;;;-1.05;60.54;95260.84;526091;28;788;-63
2024/01/30 00:18:30;;;;;;;3.13;2.83;;;;;;;-1.07;61.26;95257.06;525999;28;859;-63
2024/01/30 00:18:45;;;;;;;2.90;2.70;;;;;;;-1.11;61.16;95262.59;526107;28;772;-64
2024/01/30 00:19:02;;;;;;;2.70;2.50;;;;;;;-1.12;61.21;95252.91;525981;28;835;-63
2024/01/30 00:19:17;;;;;;;2.65;2.45;;;;;;;-1.11;61.23;95257.16;525995;28;883;-63
2024/01/30 00:19:33;;;;;;;2.63;2.43;;;;;;;-1.07;61.08;95257.81;526050;28;883;-63
2024/01/30 00:19:48;;;;;;;2.60;2.40;;;;;;;-1.07;61.25;95260.53;526028;28;851;-63
2024/01/30 00:20:08;;;;;;;2.77;2.40;;;;;;;-1.06;61.27;95266.72;526110;28;874;-63
2024/01/30 00:20:24;;;;;;;3.38;2.47;;;;;;;-1.04;61.44;95254.22;526088;28;1672;-63
2024/01/30 00:20:40;;;;;;;2.97;2.30;;;;;;;-1.17;61.36;95245.31;526109;28;820;-63
2024/01/30 00:20:56;;;;;;;2.72;2.30;;;;;;;-1.15;61.28;95261.88;526175;28;847;-63
2024/01/30 00:21:11;;;;;;;2.80;2.53;;;;;;;-1.13;60.93;95258.78;526274;28;820;-63
2024/01/30 00:21:27;;;;;;;2.60;2.40;;;;;;;-1.12;61.17;95258.34;526149;28;812;-64
2024/01/30 00:21:42;;;;;;;2.37;2.17;;;;;;;-1.16;60.66;95254.19;526190;28;855;-63
2024/01/30 00:21:58;;;;;;;2.30;2.08;;;;;;;-1.14;60.92;95255.28;526152;28;768;-63
2024/01/30 00:22:14;;;;;;;2.55;2.17;;;;;;;-1.13;60.87;95256.84;526127;28;1934;-63
2024/01/30 00:22:30;;;;;;;2.70;2.27;;;;;;;-1.11;60.77;95254.44;526235;28;776;-63
2024/01/30 00:22:45;;;;;;;2.42;2.20;;;;;;;-1.10;60.76;95253.25;526205;28;879;-63
2024/01/30 00:23:01;;;;;;;2.30;2.10;;;;;;;-1.11;60.91;95259.09;526139;28;764;-63
2024/01/30 00:23:16;;;;;;;2.17;1.97;;;;;;;-1.20;60.69;95253.53;526222;28;824;-63
2024/01/30 00:23:32;;;;;;;2.17;1.98;;;;;;;-1.24;60.71;95255.59;526144;28;816;-63
2024/01/30 00:23:48;;;;;;;2.27;2.07;;;;;;;-1.32;60.46;95265.84;526224;28;819;-63
2024/01/30 00:24:04;;;;;;;2.55;2.33;;;;;;;-1.29;60.26;95262.28;526272;28;768;-63
2024/01/30 00:24:19;;;;;;;3.58;2.65;;;;;;;-1.28;60.81;95263.06;526197;28;757;-63
2024/01/30 00:24:35;;;;;;;4.15;2.72;;;;;;;-1.25;60.99;95267.59;526293;28;912;-63
2024/01/30 00:24:50;;;;;;;3.23;2.50;;;;;;;-1.23;61.09;95265.22;526074;28;871;-62
2024/01/30 00:25:06;;;;;;;3.35;2.42;;;;;;;-1.20;60.94;95264.38;526268;28;1040;-63
2024/01/30 00:25:21;;;;;;;3.73;2.60;;;;;;;-1.19;61.32;95257.78;526113;28;720;-63
2024/01/30 00:25:37;;;;;;;2.88;2.58;;;;;;;-1.16;61.12;95259.63;526050;28;855;-63
2024/01/30 00:25:52;;;;;;;2.80;2.30;;;;;;;-1.19;61.20;95263.22;526012;28;737;-63
2024/01/30 00:26:08;;;;;;;2.70;2.25;;;;;;;-1.22;61.11;95262.09;526009;28;843;-63
2024/01/30 00:26:23;;;;;;;2.90;2.40;;;;;;;-1.24;61.17;95267.19;526044;28;800;-63
2024/01/30 00:26:39;;;;;;;3.50;2.60;;;;;;;-1.23;61.42;95252.44;526045;28;784;-63
2024/01/30 00:26:54;;;;;;;3.00;2.37;;;;;;;-1.19;60.92;95255.81;526003;28;875;-63
2024/01/30 00:27:10;;;;;;;2.73;2.40;;;;;;;-1.15;61.19;95261.16;526010;28;808;-63
2024/01/30 00:27:26;;;;;;;3.10;2.60;;;;;;;-1.19;61.02;95244.25;526055;28;780;-63
2024/01/30 00:27:42;;;;;;;2.72;2.35;;;;;;;-1.22;61.33;95245.09;526032;28;837;-63
2024/01/30 00:27:57;;;;;;;2.70;2.20;;;;;;;-1.20;61.16;95267.09;526081;28;799;-63
2024/01/30 00:28:13;;;;;;;2.53;2.08;;;;;;;-1.20;60.66;95256.25;526003;28;824;-63
2024/01/30 00:28:28;;;;;;;2.47;2.13;;;;;;;-1.24;60.68;95266.44;526034;28;850;-63
2024/01/30 00:28:44;;;;;;;2.40;2.08;;;;;;;-1.30;60.31;95266.19;526078;28;792;-63
2024/01/30 00:28:59;;;;;;;2.13;1.93;;;;;;;-1.35;60.12;95263.25;525890;28;811;-63
2024/01/30 00:29:19;;;;;;;2.30;2.10;;;;;;;-1.34;60.12;95257.38;526044;28;796;-63
2024/01/30 00:29:34;;;;;;;2.78;2.05;;;;;;;-1.30;59.75;95260.75;526081;28;825;-63
2024/01/30 00:29:50;;;;;;;2.60;2.10;;;;;;;-1.30;60.37;95260.03;525898;28;812;-63
2024/01/30 00:30:06;;;;;;;2.40;2.20;;;;;;;-1.29;60.76;95259.59;526032;28;838;-63
2024/01/30 00:30:22;;;;;;;2.50;2.30;;;;;;;-1.31;60.59;95248.41;526035;28;917;-63
2024/01/30 00:30:37;;;;;;;2.87;2.30;;;;;;;-1.30;60.63;95260.03;526037;28;835;-63
2024/01/30 00:30:52;;;;;;;2.50;2.30;;;;;;;-1.30;60.75;95254.59;525975;28;756;-63
2024/01/30 00:31:12;;;;;;;2.30;2.10;;;;;;;-1.30;60.69;95252.63;526007;28;851;-63
2024/01/30 00:31:27;;;;;;;2.50;2.30;;;;;;;-1.25;60.46;95256.78;526037;28;820;-63
2024/01/30 00:31:43;;;;;;;2.88;2.50;;;;;;;-1.23;60.23;95259.81;526014;28;788;-62
2024/01/30 00:31:58;;;;;;;2.80;2.50;;;;;;;-1.24;60.22;95255.59;525932;28;788;-63
2024/01/30 00:32:13;;;;;;;2.50;2.30;;;;;;;-1.21;59.97;95249.31;526078;28;780;-63
2024/01/30 00:32:29;;;;;;;2.47;2.27;;;;;;;-1.20;60.50;95253.53;526016;28;752;-63
2024/01/30 00:32:44;;;;;;;2.75;2.30;;;;;;;-1.20;60.30;95257.03;526076;28;863;-63
2024/01/30 00:33:00;;;;;;;2.73;2.33;;;;;;;-1.21;60.12;95252.03;525942;28;788;-63
2024/01/30 00:33:16;;;;;;;2.83;2.20;;;;;;;-1.23;60.04;95251.69;525976;28;1038;-63
2024/01/30 00:33:31;;;;;;;3.83;2.37;;;;;;;-1.20;60.13;95253.53;526042;28;812;-62
2024/01/30 00:33:46;;;;;;;3.70;2.50;;;;;;;-1.17;59.81;95252.69;526080;28;839;-63
2024/01/30 00:34:02;;;;;;;2.73;2.40;;;;;;;-1.20;60.28;95248.13;525999;28;761;-63
2024/01/30 00:34:17;;;;;;;2.92;2.28;;;;;;;-1.31;60.07;95253.84;526068;28;1044;-63
2024/01/30 00:34:33;;;;;;;3.33;2.10;;;;;;;-1.40;59.82;95250.22;525909;28;800;-63
2024/01/30 00:34:48;;;;;;;2.63;1.83;;;;;;;-1.49;59.96;95261.66;526018;28;741;-63
2024/01/30 00:35:04;;;;;;;2.00;1.80;;;;;;;-1.49;60.34;95250.81;526018;28;748;-63
2024/01/30 00:35:21;;;;;;;3.10;2.10;;;;;;;-1.46;60.13;95254.63;526046;28;733;-63
2024/01/30 00:35:37;;;;;;;3.03;2.08;;;;;;;-1.45;60.09;95253.47;525971;28;824;-63
2024/01/30 00:35:52;;;;;;;2.60;2.15;;;;;;;-1.42;60.42;95255.31;525961;28;784;-63
2024/01/30 00:36:09;;;;;;;2.57;2.20;;;;;;;-1.43;60.38;95253.78;525985;28;989;-63
2024/01/30 00:36:24;;;;;;;2.33;2.13;;;;;;;-1.39;60.35;95254.47;526046;28;934;-63
2024/01/30 00:36:40;;;;;;;2.70;2.23;;;;;;;-1.38;59.97;95255.97;526004;28;815;-63
2024/01/30 00:36:55;;;;;;;3.70;2.40;;;;;;;-1.36;60.13;95259.00;526036;28;835;-63
2024/01/30 00:37:11;;;;;;;4.00;2.53;;;;;;;-1.33;60.38;95263.56;525977;28;902;-63
2024/01/30 00:37:26;;;;;;;3.20;2.45;;;;;;;-1.31;60.44;95253.06;525899;28;893;-63
2024/01/30 00:37:42;;;;;;;2.80;2.30;;;;;;;-1.27;60.17;95251.03;526112;28;764;-63
2024/01/30 00:37:57;;;;;;;2.40;2.20;;;;;;;-1.23;60.33;95251.69;525997;28;893;-63
2024/01/30 00:38:13;;;;;;;2.67;2.30;;;;;;;-1.21;60.51;95260.91;526051;28;807;-63
2024/01/30 00:38:28;;;;;;;3.17;2.50;;;;;;;-1.18;60.38;95257.34;526028;28;768;-63
2024/01/30 00:38:43;;;;;;;3.43;2.57;;;;;;;-1.17;60.27;95250.00;526088;28;796;-63
2024/01/30 00:38:59;;;;;;;3.22;2.35;;;;;;;-1.16;60.07;95254.97;525762;28;784;-63
2024/01/30 00:39:15;;;;;;;2.47;2.27;;;;;;;-1.15;60.06;95261.88;525917;28;874;-63
2024/01/30 00:39:31;;;;;;;2.53;2.30;;;;;;;-1.19;60.43;95255.06;525909;28;906;-63
2024/01/30 00:39:46;;;;;;;2.83;2.43;;;;;;;-1.23;60.10;95252.44;525902;28;840;-63
2024/01/30 00:40:02;;;;;;;3.07;2.40;;;;;;;-1.27;60.21;95259.16;525717;28;851;-63
2024/01/30 00:40:17;;;;;;;2.65;2.22;;;;;;;-1.26;60.28;95247.13;525878;28;805;-63
2024/01/30 00:40:33;;;;;;;2.47;2.27;;;;;;;-1.27;60.55;95248.31;525781;28;833;-63
2024/01/30 00:40:48;;;;;;;2.63;2.42;;;;;;;-1.28;60.39;95253.00;525982;28;780;-63
2024/01/30 00:41:04;;;;;;;2.63;2.40;;;;;;;-1.41;60.60;95235.16;526199;28;989;-63
2024/01/30 00:41:20;;;;;;;2.30;2.10;;;;;;;-1.35;60.88;95239.63;526155;28;847;-63
2024/01/30 00:41:35;;;;;;;2.40;2.03;;;;;;;-1.35;60.89;95250.47;526149;28;804;-63
2024/01/30 00:41:51;;;;;;;2.85;2.40;;;;;;;-1.31;60.65;95244.94;526181;28;748;-63
2024/01/30 00:42:06;;;;;;;2.90;2.40;;;;;;;-1.31;60.64;95239.53;526109;28;1913;-63
2024/01/30 00:42:23;;;;;;;2.67;2.13;;;;;;;-1.31;60.99;95256.53;526167;28;898;-63
2024/01/30 00:42:39;;;;;;;2.60;2.30;;;;;;;-1.34;60.36;95240.41;526162;28;891;-63
2024/01/30 00:42:54;;;;;;;3.13;2.47;;;;;;;-1.33;60.42;95244.63;526185;28;1121;-63
2024/01/30 00:43:10;;;;;;;4.13;2.85;;;;;;;-1.30;60.19;95241.78;526165;28;784;-63
2024/01/30 00:43:25;;;;;;;3.70;2.67;;;;;;;-1.37;59.97;95246.66;526282;28;741;-63
2024/01/30 00:43:40;;;;;;;3.63;2.38;;;;;;;-1.39;60.22;95252.50;526161;28;792;-63
2024/01/30 00:43:56;;;;;;;3.20;2.30;;;;;;;-1.39;60.18;95251.75;526124;28;765;-63
2024/01/30 00:44:11;;;;;;;2.40;2.20;;;;;;;-1.43;60.41;95245.66;526153;28;816;-63
2024/01/30 00:44:27;;;;;;;2.67;2.42;;;;;;;-1.43;59.94;95246.44;526144;28;764;-63
2024/01/30 00:44:42;;;;;;;2.38;2.17;;;;;;;-1.43;60.03;95241.00;526188;28;953;-63
2024/01/30 00:44:58;;;;;;;2.13;1.93;;;;;;;-1.44;59.87;95250.31;526139;28;842;-63
2024/01/30 00:45:15;;;;;;;2.17;1.98;;;;;;;-1.48;59.94;95246.19;526211;28;820;-63
2024/01/30 00:45:30;;;;;;;2.35;2.13;;;;;;;-1.52;59.80;95256.34;526220;28;879;-63
2024/01/30 00:45:45;;;;;;;3.10;2.33;;;;;;;-1.56;60.72;95243.66;525914;28;749;-63
2024/01/30 00:46:01;;;;;;;2.63;2.10;;;;;;;-1.69;60.77;95234.72;525724;28;772;-62
2024/01/30 00:46:17;;;;;;;9.13;1.90;;;;;;;-1.68;60.09;95247.06;526085;28;827;-63
2024/01/30 00:46:32;;;;;;;9.30;1.90;;;;;;;-1.63;60.42;95243.09;526184;28;794;-63
2024/01/30 00:46:48;;;;;;;2.03;1.83;;;;;;;-1.57;60.41;95249.50;526198;28;871;-63
2024/01/30 00:47:03;;;;;;;2.20;1.90;;;;;;;-1.50;59.98;95246.63;526013;28;838;-63
2024/01/30 00:47:19;;;;;;;2.83;2.20;;;;;;;-1.44;60.19;95244.91;526109;28;883;-63
2024/01/30 00:47:34;;;;;;;2.90;2.53;;;;;;;-1.40;60.34;95237.44;526301;28;812;-63
2024/01/30 00:47:49;;;;;;;3.42;2.75;;;;;;;-1.35;60.29;95241.56;526124;28;836;-63
2024/01/30 00:48:05;;;;;;;3.07;2.47;;;;;;;-1.34;60.49;95243.84;526139;28;799;-63
2024/01/30 00:48:21;;;;;;;2.75;2.38;;;;;;;-1.36;60.25;95250.88;526152;28;819;-63
2024/01/30 00:48:36;;;;;;;2.40;2.20;;;;;;;-1.36;60.16;95242.75;526192;28;866;-63
2024/01/30 00:48:52;;;;;;;2.30;2.10;;;;;;;-1.35;60.68;95253.19;526159;28;835;-63
2024/01/30 00:49:07;;;;;;;2.40;2.20;;;;;;;-1.30;60.52;95254.59;526191;28;918;-63
2024/01/30 00:49:22;;;;;;;2.50;2.30;;;;;;;-1.28;60.43;95244.09;526174;28;844;-63
2024/01/30 00:49:38;;;;;;;2.43;2.13;;;;;;;-1.25;60.49;95243.22;526201;28;874;-63
2024/01/30 00:49:54;;;;;;;2.33;2.13;;;;;;;-1.22;60.41;95237.72;526058;28;847;-63
2024/01/30 00:50:10;;;;;;;2.92;2.42;;;;;;;-1.22;60.07;95239.66;526105;28;894;-63
2024/01/30 00:50:25;;;;;;;3.00;2.53;;;;;;;-1.20;60.37;95240.00;526248;28;856;-63
2024/01/30 00:50:40;;;;;;;2.50;2.30;;;;;;;-1.20;60.28;95243.47;526103;28;895;-63
2024/01/30 00:50:56;;;;;;;2.30;2.10;;;;;;;-1.24;60.04;95240.09;526055;28;819;-63
2024/01/30 00:51:11;;;;;;;2.70;2.50;;;;;;;-1.23;60.32;95244.31;526192;28;808;-63
2024/01/30 00:51:29;;;;;;;2.67;2.47;;;;;;;-1.21;60.57;95246.63;526095;28;836;-63
2024/01/30 00:51:46;;;;;;;2.47;2.28;;;;;;;-1.24;60.33;95248.22;526196;28;827;-63
2024/01/30 00:52:01;;;;;;;2.50;2.13;;;;;;;-1.21;60.44;95241.19;526096;28;824;-63
2024/01/30 00:52:17;;;;;;;2.30;1.87;;;;;;;-1.22;60.17;95240.44;526171;28;824;-63
2024/01/30 00:52:33;;;;;;;2.30;1.80;;;;;;;-1.25;59.98;95248.63;526123;28;756;-64
2024/01/30 00:52:48;;;;;;;2.28;1.95;;;;;;;-1.29;59.96;95245.28;526110;28;910;-63
2024/01/30 00:53:04;;;;;;;2.53;2.27;;;;;;;-1.34;59.96;95240.41;525803;28;1127;-63
2024/01/30 00:53:19;;;;;;;2.90;2.30;;;;;;;-1.36;59.56;95248.94;524047;28;868;-63
2024/01/30 00:53:34;;;;;;;2.60;2.17;;;;;;;-1.39;59.39;95244.38;524103;28;800;-63
2024/01/30 00:53:50;;;;;;;2.38;2.17;;;;;;;-1.39;59.34;95247.09;524040;28;804;-63
2024/01/30 00:54:06;;;;;;;2.90;2.30;;;;;;;-1.36;59.40;95243.50;524036;28;753;-63
2024/01/30 00:54:21;;;;;;;3.00;2.35;;;;;;;-1.33;59.31;95244.63;524087;28;856;-63
2024/01/30 00:54:37;;;;;;;3.47;2.30;;;;;;;-1.31;59.21;95245.72;524080;28;761;-62
2024/01/30 00:54:52;;;;;;;3.10;2.13;;;;;;;-1.33;59.53;95250.78;523875;28;831;-63
2024/01/30 00:55:08;;;;;;;2.47;2.17;;;;;;;-1.34;59.43;95241.13;523859;28;931;-63
2024/01/30 00:55:23;;;;;;;2.80;2.17;;;;;;;-1.38;59.12;95247.84;523917;28;836;-63
2024/01/30 00:55:39;;;;;;;3.27;2.20;;;;;;;-1.42;59.71;95239.81;523893;28;836;-63
2024/01/30 00:55:54;;;;;;;3.07;2.10;;;;;;;-1.42;59.93;95231.69;523791;28;781;-63
2024/01/30 00:56:10;;;;;;;2.60;1.90;;;;;;;-1.47;59.79;95243.03;523898;28;800;-63
2024/01/30 00:56:25;;;;;;;2.35;1.80;;;;;;;-1.47;59.34;95236.88;523849;28;813;-63
2024/01/30 00:56:40;;;;;;;2.10;1.90;;;;;;;-1.47;59.46;95240.31;523847;28;894;-63
2024/01/30 00:56:56;;;;;;;2.30;2.10;;;;;;;-1.49;59.56;95234.56;524020;28;785;-63
2024/01/30 00:57:12;;;;;;;2.38;2.10;;;;;;;-1.37;59.54;95243.94;524080;28;875;-63
2024/01/30 00:57:27;;;;;;;2.87;2.00;;;;;;;-1.34;59.69;95246.56;524066;28;843;-63
2024/01/30 00:57:43;;;;;;;2.72;1.88;;;;;;;-1.33;59.52;95241.91;524105;28;808;-63
2024/01/30 00:57:58;;;;;;;2.07;1.80;;;;;;;-1.32;60.13;95235.31;523996;28;804;-63
2024/01/30 00:58:14;;;;;;;1.90;1.70;;;;;;;-1.32;59.79;95233.34;523915;28;859;-63
2024/01/30 00:58:29;;;;;;;2.07;1.70;;;;;;;-1.31;59.66;95234.09;523822;28;804;-63
2024/01/30 00:58:44;;;;;;;2.10;1.90;;;;;;;-1.31;59.74;95251.13;523933;28;826;-63
2024/01/30 00:59:00;;;;;;;2.15;1.85;;;;;;;-1.31;60.06;95244.94;523859;28;804;-63
2024/01/30 00:59:15;;;;;;;2.17;1.90;;;;;;;-1.31;59.97;95248.41;523905;28;784;-63
2024/01/30 00:59:31;;;;;;;2.10;1.90;;;;;;;-1.35;59.86;95239.63;523790;28;756;-63
2024/01/30 00:59:46;;;;;;;2.10;1.90;;;;;;;-1.35;59.63;95247.00;523897;28;868;-63
2024/01/30 01:00:03;;;;;;;2.30;2.10;;;;;;;-1.31;59.69;95242.22;523849;28;776;-63
2024/01/30 01:00:20;;;;;;;2.40;2.20;;;;;;;-1.28;59.16;95244.88;523731;28;1128;-63
2024/01/30 01:00:37;;;;;;;2.50;2.30;;;;;;;-1.24;59.63;95242.81;523881;28;907;-63
2024/01/30 01:00:52;;;;;;;2.50;2.30;;;;;;;-1.23;59.51;95243.53;523765;28;864;-62
2024/01/30 01:01:07;;;;;;;2.37;2.17;;;;;;;-1.25;59.72;95232.38;524044;28;823;-63
2024/01/30 01:01:23;;;;;;;2.20;2.00;;;;;;;-1.23;59.95;95238.91;524048;28;768;-63
2024/01/30 01:01:38;;;;;;;2.30;2.10;;;;;;;-1.23;60.29;95236.19;524027;28;781;-63
2024/01/30 01:01:54;;;;;;;2.45;2.25;;;;;;;-1.23;59.85;95228.06;524071;28;839;-63
2024/01/30 01:02:09;;;;;;;2.60;2.40;;;;;;;-1.23;60.05;95232.72;523895;28;1911;-63
2024/01/30 01:02:25;;;;;;;4.03;2.70;;;;;;;-1.28;59.65;95233.25;524006;28;824;-63
2024/01/30 01:02:40;;;;;;;3.67;2.47;;;;;;;-1.33;59.72;95244.63;524073;28;824;-63
2024/01/30 01:02:55;;;;;;;2.15;1.92;;;;;;;-1.40;60.62;95245.56;524065;28;852;-63
2024/01/30 01:03:11;;;;;;;2.23;1.90;;;;;;;-1.46;60.69;95232.97;524034;28;894;-63
2024/01/30 01:03:26;;;;;;;2.10;1.90;;;;;;;-1.48;60.19;95233.41;524068;28;820;-63
2024/01/30 01:03:43;;;;;;;2.00;1.80;;;;;;;-1.50;59.90;95235.78;523978;28;848;-63
2024/01/30 01:03:59;;;;;;;2.70;1.92;;;;;;;-1.54;59.58;95241.28;525462;28;1120;-63
2024/01/30 01:04:14;;;;;;;2.57;1.83;;;;;;;-1.52;59.52;95242.81;526217;28;788;-63
2024/01/30 01:04:29;;;;;;;1.73;1.60;;;;;;;-1.56;58.83;95235.53;526113;28;895;-63
2024/01/30 01:04:45;;;;;;;1.70;1.60;;;;;;;-1.50;59.03;95237.72;525193;28;1250;-63
2024/01/30 01:05:00;;;;;;;2.10;1.90;;;;;;;-1.50;58.88;95245.84;523900;28;776;-63
2024/01/30 01:05:16;;;;;;;2.23;1.83;;;;;;;-1.50;58.65;95240.44;524052;28;1092;-63
2024/01/30 01:05:31;;;;;;;2.08;1.80;;;;;;;-1.49;58.67;95244.69;524014;28;769;-63
2024/01/30 01:05:47;;;;;;;2.33;2.00;;;;;;;-1.46;58.95;95247.28;523748;28;1249;-63
2024/01/30 01:06:02;;;;;;;2.35;1.88;;;;;;;-1.40;59.14;95247.50;523743;28;851;-63
2024/01/30 01:06:18;;;;;;;2.53;2.00;;;;;;;-1.39;58.91;95247.09;523915;28;866;-63
2024/01/30 01:06:33;;;;;;;2.42;2.13;;;;;;;-1.36;58.63;95243.50;523880;28;808;-63
2024/01/30 01:06:49;;;;;;;2.13;1.93;;;;;;;-1.32;58.85;95235.31;523818;28;765;-63
2024/01/30 01:07:05;;;;;;;1.75;1.65;;;;;;;-1.34;58.79;95254.69;523861;28;986;-63
2024/01/30 01:07:20;;;;;;;1.98;1.77;;;;;;;-1.32;58.72;95243.44;523845;28;780;-63
2024/01/30 01:07:36;;;;;;;2.20;2.00;;;;;;;-1.37;58.44;95227.69;523852;28;864;-63
2024/01/30 01:07:51;;;;;;;2.05;1.88;;;;;;;-1.46;58.68;95231.03;523819;28;792;-63
2024/01/30 01:08:07;;;;;;;1.80;1.70;;;;;;;-1.41;58.98;95237.88;523877;28;820;-62
2024/01/30 01:08:22;;;;;;;1.73;1.60;;;;;;;-1.43;58.80;95240.25;523876;28;780;-63
2024/01/30 01:08:38;;;;;;;1.63;1.50;;;;;;;-1.54;58.61;95237.81;523887;28;860;-62
2024/01/30 01:08:53;;;;;;;1.63;1.50;;;;;;;-1.54;58.55;95241.28;523841;28;806;-63
2024/01/30 01:09:08;;;;;;;1.67;1.57;;;;;;;-1.52;58.85;95240.09;523862;28;760;-63
2024/01/30 01:09:24;;;;;;;1.93;1.60;;;;;;;-1.51;58.83;95245.09;523842;28;868;-63
2024/01/30 01:09:39;;;;;;;2.17;1.75;;;;;;;-1.47;58.79;95245.00;523865;28;767;-63
2024/01/30 01:09:55;;;;;;;2.07;1.87;;;;;;;-1.48;58.97;95238.06;523838;28;801;-63
2024/01/30 01:10:11;;;;;;;2.55;2.08;;;;;;;-1.55;58.01;95244.41;523820;28;836;-63
2024/01/30 01:10:28;;;;;;;2.95;1.90;;;;;;;-1.54;58.54;95249.41;523827;28;828;-63
2024/01/30 01:10:43;;;;;;;2.35;1.88;;;;;;;-1.51;58.55;95245.09;523795;28;843;-63
2024/01/30 01:10:58;;;;;;;2.17;1.97;;;;;;;-1.48;58.43;95246.19;523731;28;811;-63
2024/01/30 01:11:14;;;;;;;2.15;1.80;;;;;;;-1.54;58.21;95243.25;523918;28;780;-63
2024/01/30 01:11:29;;;;;;;3.07;1.97;;;;;;;-1.50;58.23;95249.31;523824;28;887;-64
2024/01/30 01:11:45;;;;;;;2.97;1.90;;;;;;;-1.47;58.38;95250.41;523852;28;1065;-63
2024/01/30 01:12:00;;;;;;;2.17;1.73;;;;;;;-1.42;58.54;95252.59;523789;28;835;-63
2024/01/30 01:12:16;;;;;;;2.07;1.87;;;;;;;-1.44;58.44;95239.47;523902;28;780;-63
2024/01/30 01:12:31;;;;;;;1.95;1.80;;;;;;;-1.39;58.47;95249.81;523860;28;768;-63
2024/01/30 01:12:48;;;;;;;1.90;1.80;;;;;;;-1.41;58.39;95243.28;523867;28;836;-63
2024/01/30 01:13:04;;;;;;;1.80;1.70;;;;;;;-1.40;58.11;95245.56;523889;28;815;-63
2024/01/30 01:13:19;;;;;;;1.70;1.60;;;;;;;-1.39;58.16;95244.38;523793;28;847;-63
2024/01/30 01:13:35;;;;;;;2.00;1.73;;;;;;;-1.35;58.13;95247.00;523796;28;899;-63
2024/01/30 01:13:50;;;;;;;2.10;1.90;;;;;;;-1.37;58.09;95243.94;523883;28;776;-63
2024/01/30 01:14:06;;;;;;;1.83;1.60;;;;;;;-1.49;57.94;95242.72;523829;28;891;-63
2024/01/30 01:14:21;;;;;;;1.73;1.53;;;;;;;-1.62;58.11;95250.78;523860;28;780;-63
2024/01/30 01:14:37;;;;;;;1.63;1.52;;;;;;;-1.67;58.08;95242.44;523893;28;768;-63
2024/01/30 01:14:52;;;;;;;1.70;1.60;;;;;;;-1.71;58.37;95237.09;523755;28;788;-63
2024/01/30 01:15:09;;;;;;;2.00;1.80;;;;;;;-1.65;58.38;95243.53;523817;28;943;-63
2024/01/30 01:15:25;;;;;;;1.85;1.70;;;;;;;-1.60;58.45;95248.41;523902;28;911;-63
2024/01/30 01:15:40;;;;;;;1.70;1.60;;;;;;;-1.61;58.60;95240.72;523832;28;910;-63
2024/01/30 01:15:56;;;;;;;1.50;1.40;;;;;;;-1.65;57.99;95246.22;523769;28;788;-63
2024/01/30 01:16:11;;;;;;;1.53;1.40;;;;;;;-1.65;58.49;95251.66;523873;28;828;-63
2024/01/30 01:16:26;;;;;;;1.87;1.33;;;;;;;-1.64;58.04;95245.03;523808;28;816;-63